KWF weather

Waterfall Seaplane Base
Waterfall, Alaska, United States

Public forecast

Using degrees Fahrenheit for public forecast. Weather courtesy of forecast.io.

METAR (pilot weather report)

Closest report is Hydaburg Seaplane Base, 15.2 nm (28.1 km) ESE. Retrieved 2019/07/19 00:56 UTC (21 minutes ago):

PAHY 190056Z AUTO 21006KT 10SM SCT055 17/10 A2995 RMK AO2 SLP140 T01670100 $

TAF (pilot weather forecast)

Forecast is more than 12 hours old.

Closest forecast is Klawock Airport, 17.9 nm (33.2 km) NNE. Retrieved 2019/07/18 00:24 UTC (1 day ago):

TAF PAKW 182321Z 1900/1924 22006KT P6SM VCSH SCT035 OVC050 FM190300 VRB03KT P6SM SCT010 BKN025 OVC040 FM190900 VRB03KT 2SM BR SCT004 BKN008 OVC012 FM191800 22005KT P6SM SCT015 BKN040 AMD LTD TO CLD VIS AND WIND